Wooster, Arkansas
Current Conditions -  °F | °C
As of 9:58 PM on Tuesday 21 Oct 2014 (Local Time) from KLRF Reporting Station
Clear Clear  
Wind Chill: 56°   Ceiling: Unl
Heat Index: 56°   Visibility: 10mi
Dew Point: 53°   Wind: 0mph
Humidity: 91%   Direction: NA
Pressure: 30.1"   Gusts: NA
Location:  35.2°N, 92.46°W
Report Text: KLRF 220258Z AUTO 00000KT 10SM CLR 13/12 A3010 RMK AO2 SLP195 T01310116 52018
Loading
Personal Weather Stations






























Interactive Weather Map
Tropical Storm Tracking
New forecast layout! Learn more

10-Day Weather Forecast

Advertisements
Track Severe Weather on mobile